createdAt,value
2018-11-06T00:00:41.613Z,53.87
2018-11-06T00:03:15.128Z,53.83
2018-11-06T00:05:43.283Z,53.83
2018-11-06T00:08:11.467Z,53.81
2018-11-06T00:10:39.562Z,53.80
2018-11-06T00:13:07.641Z,53.82
2018-11-06T00:15:35.761Z,53.83
2018-11-06T00:18:03.855Z,53.81
2018-11-06T00:20:31.957Z,53.85
2018-11-06T00:23:00.228Z,53.85
2018-11-06T00:25:28.315Z,53.84
2018-11-06T00:27:56.430Z,53.81
2018-11-06T00:30:24.537Z,53.83
2018-11-06T00:32:52.655Z,53.83
2018-11-06T00:35:20.773Z,53.83
2018-11-06T00:37:48.907Z,53.83
2018-11-06T00:40:17.020Z,53.85
2018-11-06T00:42:45.131Z,53.84
2018-11-06T00:45:15.306Z,53.84
2018-11-06T00:47:43.441Z,53.85
2018-11-06T00:50:12.165Z,53.85
2018-11-06T00:52:41.138Z,53.86
2018-11-06T00:55:09.810Z,53.88
2018-11-06T00:57:38.908Z,53.90
2018-11-06T01:00:09.519Z,53.95
2018-11-06T01:02:37.765Z,53.96
2018-11-06T01:05:06.375Z,53.99
2018-11-06T01:07:34.470Z,53.99
2018-11-06T01:10:02.586Z,53.97
2018-11-06T01:12:30.689Z,53.97
2018-11-06T01:23:46.526Z,54.01
2018-11-06T01:29:07.443Z,54.02
2018-11-06T01:31:35.554Z,54.01
2018-11-06T01:34:03.670Z,54.02
2018-11-06T01:36:31.802Z,54.05
2018-11-06T01:38:59.941Z,54.04
2018-11-06T01:41:28.016Z,54.06
2018-11-06T01:43:56.109Z,54.04
2018-11-06T01:46:24.209Z,54.04
2018-11-06T01:48:52.321Z,54.08
2018-11-06T01:51:20.408Z,54.08
2018-11-06T01:53:48.533Z,54.11
2018-11-06T01:56:16.672Z,54.13
2018-11-06T01:58:44.793Z,54.13
2018-11-06T02:01:12.929Z,54.19
2018-11-06T02:03:41.038Z,54.23
2018-11-06T02:06:09.238Z,54.25
2018-11-06T02:08:37.346Z,54.25
2018-11-06T02:11:05.482Z,54.22
2018-11-06T02:16:26.319Z,54.26
2018-11-06T02:18:54.414Z,54.27
2018-11-06T02:21:38.657Z,54.29
2018-11-06T02:30:01.847Z,54.32
2018-11-06T02:32:30.038Z,54.36
2018-11-06T02:34:58.131Z,54.38
2018-11-06T02:37:26.226Z,54.41
2018-11-06T02:39:54.355Z,54.43
2018-11-06T02:42:22.470Z,54.43
2018-11-06T02:44:50.572Z,54.41
2018-11-06T02:47:18.711Z,54.41
2018-11-06T02:49:46.834Z,54.40
2018-11-06T02:52:14.933Z,54.40
2018-11-06T02:54:43.045Z,54.43
2018-11-06T02:57:11.130Z,54.45
2018-11-06T02:59:39.251Z,54.48
2018-11-06T03:02:07.357Z,54.49
2018-11-06T03:04:35.470Z,54.48
2018-11-06T03:07:03.607Z,54.49
2018-11-06T03:09:31.704Z,54.50
2018-11-06T03:11:59.844Z,54.50
2018-11-06T03:23:22.690Z,54.47
2018-11-06T03:28:42.993Z,54.52
2018-11-06T03:31:11.086Z,54.52
2018-11-06T03:33:39.224Z,54.51
2018-11-06T03:36:07.415Z,54.51
2018-11-06T03:38:35.502Z,54.52
2018-11-06T03:41:03.646Z,54.54
2018-11-06T03:43:31.750Z,54.56
2018-11-06T03:45:59.861Z,54.55
2018-11-06T03:48:27.990Z,54.57
2018-11-06T03:50:56.087Z,54.59
2018-11-06T03:53:24.197Z,54.60
2018-11-06T03:55:52.280Z,54.60
2018-11-06T03:58:20.378Z,54.62
2018-11-06T04:00:48.504Z,54.63
2018-11-06T04:03:16.626Z,54.62
2018-11-06T04:05:44.746Z,54.64
2018-11-06T04:08:12.818Z,54.65
2018-11-06T04:10:40.950Z,54.67
2018-11-06T04:13:23.602Z,54.68
2018-11-06T04:15:51.729Z,54.72
2018-11-06T04:18:19.854Z,54.73
2018-11-06T04:20:47.965Z,54.75
2018-11-06T04:26:08.822Z,54.82
2018-11-06T04:28:36.917Z,54.84
2018-11-06T04:31:05.095Z,54.86
2018-11-06T04:33:33.268Z,54.71
2018-11-06T04:36:01.363Z,54.75
2018-11-06T04:38:29.487Z,54.75
2018-11-06T04:40:58.125Z,54.77
2018-11-06T04:43:26.267Z,54.76
2018-11-06T04:45:54.377Z,54.74
2018-11-06T04:48:22.480Z,54.73
2018-11-06T04:50:50.616Z,54.74
2018-11-06T04:53:18.737Z,54.74
2018-11-06T04:55:46.845Z,54.77
2018-11-06T04:58:14.922Z,54.78
2018-11-06T05:00:43.016Z,54.77
2018-11-06T05:03:11.125Z,54.79
2018-11-06T05:05:39.213Z,54.78
2018-11-06T05:08:07.315Z,54.79
2018-11-06T05:10:35.439Z,54.82
2018-11-06T05:13:03.530Z,54.81
2018-11-06T05:15:31.637Z,54.81
2018-11-06T05:17:59.754Z,54.80
2018-11-06T05:20:27.853Z,54.82
2018-11-06T05:25:48.918Z,54.81
2018-11-06T05:28:17.030Z,54.80
2018-11-06T05:30:45.149Z,54.79
2018-11-06T05:33:13.308Z,54.80
2018-11-06T05:35:41.473Z,54.79
2018-11-06T05:38:09.569Z,54.80
2018-11-06T05:40:49.014Z,54.81
2018-11-06T05:43:17.155Z,54.84
2018-11-06T05:45:45.342Z,54.81
2018-11-06T05:48:13.379Z,54.81
2018-11-06T05:50:41.490Z,55.08
2018-11-06T05:53:09.686Z,54.50
2018-11-06T05:55:37.879Z,54.59
2018-11-06T05:58:06.058Z,54.65
2018-11-06T06:00:34.226Z,54.66
2018-11-06T06:03:02.240Z,54.68
2018-11-06T06:05:30.367Z,54.68
2018-11-06T06:07:58.489Z,54.73
2018-11-06T06:10:26.654Z,54.72
2018-11-06T06:12:54.804Z,54.70
2018-11-06T06:15:22.908Z,54.68
2018-11-06T06:17:51.098Z,54.70
2018-11-06T06:23:11.496Z,54.68
2018-11-06T06:28:33.251Z,54.68
2018-11-06T06:31:01.307Z,54.71
2018-11-06T06:33:29.446Z,54.74
2018-11-06T06:35:57.554Z,54.63
2018-11-06T06:38:25.679Z,54.69
2018-11-06T06:40:53.860Z,54.72
2018-11-06T06:43:21.966Z,54.72
2018-11-06T06:45:50.041Z,54.71
2018-11-06T06:48:18.170Z,54.71
2018-11-06T06:50:46.318Z,54.70
2018-11-06T06:53:14.465Z,54.71
2018-11-06T06:55:42.637Z,54.72
2018-11-06T06:58:10.789Z,54.74
2018-11-06T07:00:38.906Z,54.76
2018-11-06T07:03:07.025Z,54.75
2018-11-06T07:05:35.150Z,54.78
2018-11-06T07:08:03.330Z,54.76
2018-11-06T07:10:31.456Z,54.77
2018-11-06T07:13:11.732Z,54.78
2018-11-06T07:15:39.909Z,54.52
2018-11-06T07:18:08.003Z,54.62
2018-11-06T07:20:36.105Z,54.65
2018-11-06T07:23:04.252Z,54.67
2018-11-06T08:30:46.285Z,57.29
2018-11-06T08:33:14.304Z,57.69
2018-11-06T08:35:42.423Z,58.28
2018-11-06T08:38:10.520Z,58.17
2018-11-06T08:40:38.633Z,58.31
2018-11-06T08:43:06.724Z,59.38
2018-11-06T08:45:34.817Z,59.59
2018-11-06T08:48:02.954Z,60.05
2018-11-06T08:50:31.013Z,60.47
2018-11-06T08:52:59.103Z,61.63
2018-11-06T08:55:27.181Z,62.08
2018-11-06T08:57:55.853Z,62.67
2018-11-06T09:00:23.960Z,63.09
2018-11-06T09:02:52.063Z,63.93
2018-11-06T09:05:20.178Z,64.08
2018-11-06T09:07:48.274Z,65.88
2018-11-06T09:10:16.897Z,66.94
2018-11-06T09:21:32.246Z,68.71
2018-11-06T09:29:32.286Z,75.21
2018-11-06T09:32:00.375Z,76.09
2018-11-06T09:34:28.981Z,77.62
2018-11-06T09:36:57.135Z,78.06
2018-11-06T09:39:25.261Z,78.90
2018-11-06T09:41:53.363Z,80.98
2018-11-06T09:44:21.486Z,82.32
2018-11-06T09:46:49.608Z,83.63
2018-11-06T09:49:17.740Z,84.29
2018-11-06T09:51:45.864Z,85.67
2018-11-06T09:54:14.149Z,89.57
2018-11-06T09:56:42.243Z,91.82
2018-11-06T09:59:10.319Z,94.19
2018-11-06T10:01:38.410Z,94.28
2018-11-06T10:04:06.522Z,93.19
2018-11-06T10:06:34.698Z,95.43
2018-11-06T10:09:02.749Z,100.00
2018-11-06T10:11:30.910Z,99.60
2018-11-06T10:16:51.449Z,100.00
2018-11-06T10:19:19.534Z,100.00
2018-11-06T10:21:53.318Z,100.00
2018-11-06T11:17:44.491Z,100.00
2018-11-06T11:20:28.639Z,100.00
2018-11-06T11:31:44.241Z,100.00
2018-11-06T11:34:12.492Z,97.76
2018-11-06T11:36:40.595Z,100.00
2018-11-06T11:39:09.005Z,100.00
2018-11-06T11:41:37.157Z,100.00
2018-11-06T11:44:05.254Z,100.00
2018-11-06T11:46:33.361Z,100.00
2018-11-06T11:49:01.462Z,100.00
2018-11-06T11:51:29.545Z,100.00
2018-11-06T11:53:57.637Z,98.16
2018-11-06T11:56:25.753Z,98.81
2018-11-06T11:58:53.847Z,100.00
2018-11-06T12:01:21.934Z,95.77
2018-11-06T12:03:50.011Z,100.00
2018-11-06T12:06:18.127Z,100.00
2018-11-06T12:08:46.241Z,100.00
2018-11-06T12:11:14.302Z,100.00
2018-11-06T12:16:35.525Z,100.00
2018-11-06T12:20:10.901Z,99.07
2018-11-06T13:14:14.699Z,100.00
2018-11-06T13:16:42.800Z,100.00
2018-11-06T13:19:10.884Z,100.00
2018-11-06T13:24:37.303Z,100.00
2018-11-06T13:27:05.661Z,100.00
2018-11-06T13:29:33.781Z,100.00
2018-11-06T13:32:01.899Z,100.00
2018-11-06T13:34:29.994Z,100.00
2018-11-06T13:36:58.113Z,100.00
2018-11-06T13:39:26.186Z,100.00
2018-11-06T13:41:54.336Z,100.00
2018-11-06T13:44:22.719Z,100.00
2018-11-06T13:46:50.498Z,100.00
2018-11-06T13:49:18.582Z,100.00
2018-11-06T13:51:46.705Z,100.00
2018-11-06T13:54:14.816Z,100.00
2018-11-06T13:56:42.914Z,100.00
2018-11-06T13:59:11.005Z,100.00
2018-11-06T14:01:39.101Z,100.00
2018-11-06T14:04:07.258Z,100.00
2018-11-06T14:06:35.343Z,100.00
2018-11-06T14:09:03.530Z,100.00
2018-11-06T14:11:31.623Z,100.00
2018-11-06T14:16:52.810Z,100.00
2018-11-06T14:19:20.925Z,100.00
2018-11-06T14:24:41.530Z,100.00
2018-11-06T14:27:11.637Z,100.00
2018-11-06T14:29:39.666Z,100.00
2018-11-06T14:32:07.786Z,100.00
2018-11-06T14:34:35.929Z,100.00
2018-11-06T14:37:04.062Z,100.00
2018-11-06T14:39:32.148Z,100.00
2018-11-06T14:42:00.306Z,100.00
2018-11-06T14:44:28.391Z,100.00
2018-11-06T14:46:56.507Z,100.00
2018-11-06T14:49:24.640Z,100.00
2018-11-06T14:51:52.702Z,99.99
2018-11-06T14:54:20.811Z,99.05
2018-11-06T14:56:48.910Z,97.36
2018-11-06T14:59:17.117Z,96.04
2018-11-06T15:01:45.322Z,95.10
2018-11-06T15:04:13.433Z,94.16
2018-11-06T15:06:41.533Z,92.58
2018-11-06T15:09:09.842Z,93.45
2018-11-06T15:11:38.373Z,92.95
2018-11-06T15:14:06.813Z,92.30
2018-11-06T15:25:23.867Z,89.54
2018-11-06T16:13:21.363Z,74.18
2018-11-06T16:15:49.477Z,74.25
2018-11-06T16:18:17.558Z,73.80
2018-11-06T16:20:58.355Z,72.91
2018-11-06T16:26:18.950Z,71.07
2018-11-06T16:28:47.049Z,70.50
2018-11-06T16:31:15.166Z,70.36
2018-11-06T16:33:43.260Z,70.00
2018-11-06T16:36:11.376Z,69.68
2018-11-06T16:38:39.482Z,68.95
2018-11-06T16:41:07.578Z,68.42
2018-11-06T16:43:35.684Z,68.18
2018-11-06T16:46:03.781Z,67.87
2018-11-06T16:48:31.945Z,67.92
2018-11-06T16:51:00.026Z,67.72
2018-11-06T16:53:28.139Z,67.69
2018-11-06T16:55:56.214Z,65.91
2018-11-06T16:58:24.288Z,65.36
2018-11-06T17:00:52.417Z,65.32
2018-11-06T17:03:20.526Z,65.14
2018-11-06T17:05:48.617Z,65.20
2018-11-06T17:08:16.750Z,65.23
2018-11-06T17:10:44.875Z,65.41
2018-11-06T17:24:17.098Z,65.33
2018-11-06T17:26:45.217Z,65.25
2018-11-06T17:29:19.786Z,65.93
2018-11-06T17:31:47.866Z,65.50
2018-11-06T17:34:16.059Z,65.07
2018-11-06T17:36:44.103Z,64.99
2018-11-06T17:39:13.586Z,64.90
2018-11-06T17:41:41.658Z,64.72
2018-11-06T17:44:09.771Z,64.51
2018-11-06T17:46:38.170Z,64.38
2018-11-06T17:49:06.286Z,64.26
2018-11-06T17:51:34.541Z,64.19
2018-11-06T17:54:02.629Z,63.97
2018-11-06T17:56:31.810Z,63.62
2018-11-06T17:58:59.967Z,63.42
2018-11-06T18:01:28.074Z,63.16
2018-11-06T18:03:56.221Z,63.18
2018-11-06T18:06:24.296Z,62.94
2018-11-06T18:08:52.398Z,58.56
2018-11-06T18:11:20.487Z,58.57
2018-11-06T18:16:41.345Z,58.27
2018-11-06T18:19:09.399Z,58.01
2018-11-06T18:24:29.993Z,57.82
2018-11-06T18:26:58.149Z,57.71
2018-11-06T18:29:26.244Z,57.78
2018-11-06T18:31:54.411Z,57.53
2018-11-06T18:34:22.515Z,57.50
2018-11-06T18:36:50.601Z,57.38
2018-11-06T18:39:18.702Z,57.40
2018-11-06T18:41:46.804Z,57.35
2018-11-06T18:44:15.035Z,57.30
2018-11-06T18:46:43.071Z,57.04
2018-11-06T18:49:11.194Z,56.94
2018-11-06T18:51:39.327Z,56.81
2018-11-06T18:54:07.461Z,56.82
2018-11-06T18:56:35.550Z,56.66
2018-11-06T18:59:03.666Z,56.56
2018-11-06T19:01:31.744Z,56.49
2018-11-06T19:03:59.862Z,56.54
2018-11-06T19:06:27.953Z,56.48
2018-11-06T19:08:56.054Z,56.45
2018-11-06T19:11:24.149Z,56.32
2018-11-06T19:14:08.369Z,56.28
2018-11-06T19:22:24.631Z,55.79
2018-11-06T19:24:52.836Z,55.81
2018-11-06T20:17:49.608Z,55.06
2018-11-06T20:23:10.420Z,55.04
2018-11-06T20:25:38.814Z,55.06
2018-11-06T20:28:10.810Z,54.98
2018-11-06T20:30:39.167Z,54.87
2018-11-06T20:33:07.309Z,54.82
2018-11-06T20:35:35.564Z,54.82
2018-11-06T20:38:03.743Z,54.82
2018-11-06T20:40:31.759Z,54.84
2018-11-06T20:43:00.185Z,54.75
2018-11-06T20:45:28.101Z,54.72
2018-11-06T20:47:56.190Z,54.67
2018-11-06T20:50:24.961Z,54.63
2018-11-06T20:52:53.175Z,54.64
2018-11-06T20:55:21.228Z,54.60
2018-11-06T20:57:49.346Z,54.56
2018-11-06T21:00:24.987Z,54.54
2018-11-06T21:02:54.356Z,54.52
2018-11-06T21:05:22.525Z,54.52
2018-11-06T21:07:50.705Z,54.52
2018-11-06T21:10:19.985Z,54.57
2018-11-06T21:12:48.070Z,54.53
2018-11-06T21:15:16.220Z,54.51
2018-11-06T21:17:44.500Z,54.48
2018-11-06T21:20:13.456Z,54.45
2018-11-06T21:22:41.506Z,54.29
2018-11-06T21:25:09.995Z,54.43
2018-11-06T21:27:38.583Z,54.43
2018-11-06T21:30:09.881Z,54.44
2018-11-06T21:32:38.281Z,54.47
2018-11-06T21:35:06.962Z,54.45
2018-11-06T21:37:35.122Z,54.45
2018-11-06T21:40:03.246Z,54.51
2018-11-06T21:42:31.380Z,54.52
2018-11-06T21:44:59.510Z,54.45
2018-11-06T21:47:27.607Z,54.43
2018-11-06T21:49:55.728Z,54.43
2018-11-06T21:52:23.853Z,54.39
2018-11-06T21:54:51.951Z,54.39
2018-11-06T21:57:20.095Z,54.35
2018-11-06T21:59:48.217Z,54.31
2018-11-06T22:02:16.308Z,54.32
2018-11-06T22:04:44.416Z,54.28
2018-11-06T22:07:12.509Z,54.29
2018-11-06T22:09:40.668Z,54.24
2018-11-06T22:12:10.689Z,54.24
2018-11-06T22:20:33.282Z,54.23
